Time;durP1;ratioP1;P1;durP2;ratioP2;P2;SDS_P1;SDS_P2;PMS_P1;PMS_P2;Temp;Humidity;BMP_temperature;BMP_pressure;BME280_temperature;BME280_humidity;BME280_pressure;Samples;Min_cycle;Max_cycle;Signal;HPM_P1;HPM_P2
2022/04/07 00:00:29;;;;;;;;;;;14.50;46.00;;;13.10;49.31;99147.34;8215056;28;19930;-81
2022/04/07 00:04:51;;;;;;;;;;;14.60;46.10;;;12.92;49.40;99114.94;8211871;28;19929;-81
2022/04/07 00:09:13;;;;;;;;;;;14.60;46.10;;;13.07;49.49;99131.91;8211125;28;19925;-81
2022/04/07 00:13:34;;;;;;;;;;;14.60;45.90;;;13.00;49.51;99117.69;8230361;28;19924;-81
2022/04/07 00:17:57;;;;;;;;;;;14.60;45.90;;;13.04;49.51;99119.06;8237930;28;20016;-80
2022/04/07 00:22:19;;;;;;;;;;;14.50;46.00;;;13.00;49.39;99115.06;8231634;28;20261;-81
2022/04/07 00:26:41;;;;;;;;;;;14.50;45.90;;;12.96;49.54;99111.06;8233946;28;20356;-81
2022/04/07 00:31:03;;;;;;;;;;;14.50;45.80;;;12.89;49.48;99083.78;8229877;28;20008;-81
2022/04/07 00:35:26;;;;;;;;;;;14.50;45.80;;;12.87;49.37;99078.69;8233484;28;19997;-81
2022/04/07 00:39:47;;;;;;;;;;;14.40;45.80;;;12.87;49.49;99077.84;8218770;28;20021;-80
2022/04/07 00:44:09;;;;;;;;;;;14.40;45.80;;;12.94;49.51;99079.78;8252676;28;20005;-81
2022/04/07 00:48:35;;;;;;;;;;;14.40;45.80;;;12.88;49.41;99071.63;8244216;28;20016;-81
2022/04/07 00:52:58;;;;;;;;;;;14.40;45.80;;;12.89;49.40;99065.44;8251948;28;20028;-81
2022/04/07 00:57:20;;;;;;;;;;;14.40;45.80;;;12.83;49.44;99046.69;8250293;28;20004;-82
2022/04/07 01:01:42;;;;;;;;;;;14.20;45.70;;;12.76;49.26;99029.88;8251784;28;19922;-81
2022/04/07 01:06:04;;;;;;;;;;;14.40;45.80;;;12.78;49.31;99032.38;8216541;28;20008;-81
2022/04/07 01:10:26;;;;;;;;;;;14.40;45.90;;;12.72;49.54;99022.44;8238348;28;20024;-81
2022/04/07 01:14:59;;;;;;;;;;;14.30;45.80;;;12.68;49.49;99016.66;8261073;28;19933;-81
2022/04/07 01:19:21;;;;;;;;;;;14.30;45.80;;;12.75;49.14;99032.66;8244280;28;20443;-81
2022/04/07 01:24:09;;;;;;;;;;;14.30;45.90;;;12.62;49.32;99012.00;8259073;28;19930;-81
2022/04/07 01:28:32;;;;;;;;;;;14.30;45.90;;;12.71;49.52;99019.00;8229446;28;20016;-81
2022/04/07 01:32:56;;;;;;;;;;;14.20;45.80;;;12.67;49.46;99022.06;8237416;28;20016;-80
2022/04/07 01:37:18;;;;;;;;;;;14.20;45.90;;;12.59;49.35;99007.03;8220245;28;20025;-81
2022/04/07 01:41:41;;;;;;;;;;;14.20;45.90;;;12.54;49.57;98998.78;8232786;28;19926;-80
2022/04/07 01:46:03;;;;;;;;;;;14.20;45.90;;;12.49;49.49;98990.50;8236703;28;20017;-81
2022/04/07 01:50:25;;;;;;;;;;;14.20;45.90;;;12.51;49.45;98983.34;8279631;28;20020;-81
2022/04/07 01:54:48;;;;;;;;;;;14.10;45.90;;;12.58;49.47;98995.75;8256171;28;19932;-80
2022/04/07 01:59:10;;;;;;;;;;;14.10;45.90;;;12.51;49.53;98984.16;8248525;28;20005;-81
2022/04/07 02:03:32;;;;;;;;;;;14.00;45.90;;;12.54;49.84;98993.53;8243600;28;20405;-80
2022/04/07 02:07:54;;;;;;;;;;;14.00;45.90;;;12.55;49.49;99006.47;8247463;28;20599;-81
2022/04/07 02:12:17;;;;;;;;;;;14.00;45.90;;;12.46;49.63;98981.16;8234079;28;20450;-81
2022/04/07 02:16:40;;;;;;;;;;;14.00;46.30;;;12.40;49.77;98977.28;8216178;28;20017;-81
2022/04/07 02:21:03;;;;;;;;;;;13.90;46.00;;;12.38;49.74;98978.41;8233608;28;20407;-81
2022/04/07 02:25:27;;;;;;;;;;;14.00;46.10;;;12.44;49.48;98993.53;8238231;28;20005;-81
2022/04/07 02:29:49;;;;;;;;;;;14.00;46.30;;;12.28;49.55;98967.94;8247165;28;20450;-81
2022/04/07 02:34:11;;;;;;;;;;;13.80;46.20;;;12.29;49.67;98964.38;8235023;28;20017;-81
2022/04/07 02:38:34;;;;;;;;;;;13.90;46.30;;;12.38;49.59;98967.94;8235019;28;20005;-81
2022/04/07 02:42:56;;;;;;;;;;;13.80;46.30;;;12.34;49.55;98961.31;8277533;28;19926;-81
2022/04/07 02:47:17;;;;;;;;;;;13.90;46.20;;;12.29;49.57;98953.06;8259568;28;20013;-81
2022/04/07 02:51:39;;;;;;;;;;;13.80;46.30;;;12.19;49.53;98929.50;8257861;28;20021;-81
2022/04/07 02:56:01;;;;;;;;;;;13.70;46.20;;;12.29;49.84;98943.44;8260247;28;20013;-81
2022/04/07 03:00:23;;;;;;;;;;;13.80;46.40;;;12.11;49.87;98909.28;8242163;28;19926;-81
2022/04/07 03:04:45;;;;;;;;;;;13.90;46.30;;;12.26;49.68;98929.78;8251108;28;20363;-81
2022/04/07 03:09:07;;;;;;;;;;;13.70;46.70;;;12.12;49.63;98913.56;8270354;28;20442;-81
2022/04/07 03:13:28;;;;;;;;;;;13.70;46.50;;;12.16;49.85;98935.03;8246452;28;20009;-81
2022/04/07 03:17:50;;;;;;;;;;;13.70;46.40;;;12.13;49.92;98928.28;8234859;28;20370;-81
2022/04/07 03:22:12;;;;;;;;;;;13.70;46.60;;;12.06;49.68;98921.94;8231365;28;20299;-81
2022/04/07 03:26:34;;;;;;;;;;;13.70;46.40;;;12.11;49.92;98921.53;8247022;28;20578;-81
2022/04/07 03:30:56;;;;;;;;;;;13.60;46.70;;;12.03;49.96;98906.53;8237875;28;20005;-81
2022/04/07 03:35:18;;;;;;;;;;;13.50;46.40;;;12.01;49.69;98895.38;8232112;28;20001;-81
2022/04/07 03:39:40;;;;;;;;;;;13.60;46.30;;;11.99;49.52;98894.72;8227811;28;20005;-81
2022/04/07 03:44:03;;;;;;;;;;;13.60;46.40;;;12.02;49.96;98883.13;8245965;28;19922;-81
2022/04/07 03:48:25;;;;;;;;;;;13.60;46.50;;;12.05;49.50;98893.31;8236331;28;20575;-81
2022/04/07 03:52:46;;;;;;;;;;;13.60;46.60;;;11.92;50.06;98872.69;8236094;28;19922;-81
2022/04/07 03:57:08;;;;;;;;;;;13.60;46.50;;;11.87;50.03;98861.78;8238756;28;20001;-81
2022/04/07 04:01:30;;;;;;;;;;;13.50;46.50;;;11.90;49.99;98870.19;8248317;28;19928;-84
2022/04/07 04:05:51;;;;;;;;;;;13.50;47.00;;;11.77;49.98;98840.84;8250198;28;20013;-81
2022/04/07 04:10:14;;;;;;;;;;;13.50;46.80;;;11.69;49.87;98830.25;8234318;28;19917;-83
2022/04/07 04:14:36;;;;;;;;;;;13.50;46.90;;;11.73;49.84;98842.91;8252699;28;20013;-83
2022/04/07 04:18:58;;;;;;;;;;;13.50;46.60;;;11.87;49.90;98860.00;8262885;28;19993;-81
2022/04/07 04:23:19;;;;;;;;;;;13.50;46.70;;;11.77;49.96;98826.94;8280817;28;19945;-81
2022/04/07 04:27:42;;;;;;;;;;;13.40;47.60;;;11.83;50.35;98821.19;8264593;28;20012;-82
2022/04/07 04:32:03;;;;;;;;;;;13.50;47.10;;;11.91;50.12;98827.38;8239238;28;20463;-81
2022/04/07 04:36:25;;;;;;;;;;;13.50;47.20;;;11.84;50.06;98817.59;8225503;28;20006;-81
2022/04/07 04:40:47;;;;;;;;;;;13.50;46.80;;;11.86;50.04;98813.91;8251332;28;19933;-81
2022/04/07 04:45:09;;;;;;;;;;;13.50;46.80;;;11.73;50.08;98782.78;8263210;28;20008;-81
2022/04/07 04:49:30;;;;;;;;;;;13.50;47.90;;;12.00;50.09;98823.09;8223945;28;20288;-81
2022/04/07 04:53:53;;;;;;;;;;;13.50;47.00;;;11.94;49.63;98807.97;8280088;28;20024;-81
2022/04/07 04:58:15;;;;;;;;;;;13.50;46.90;;;11.94;50.06;98797.50;8235569;28;19964;-81
2022/04/07 05:02:37;;;;;;;;;;;13.50;46.90;;;11.93;49.85;98780.16;8257611;28;19928;-81
2022/04/07 05:06:59;;;;;;;;;;;13.40;47.50;;;12.05;49.95;98794.72;8236128;28;20008;-81
2022/04/07 05:11:21;;;;;;;;;;;13.60;47.60;;;12.05;50.30;98789.50;8257629;28;20041;-81
2022/04/07 05:15:43;;;;;;;;;;;13.60;47.60;;;12.04;50.28;98779.97;8248792;28;19998;-81
2022/04/07 05:20:05;;;;;;;;;;;13.60;47.90;;;12.06;50.16;98772.00;8246974;28;20005;-81
2022/04/07 05:24:26;;;;;;;;;;;13.70;48.70;;;11.90;50.50;98738.59;8213745;28;19930;-81
2022/04/07 05:28:48;;;;;;;;;;;13.60;48.30;;;12.02;50.29;98742.69;8239797;28;20013;-81
2022/04/07 05:33:11;;;;;;;;;;;13.60;47.90;;;12.07;50.37;98739.63;8225511;28;19925;-82
2022/04/07 05:37:33;;;;;;;;;;;13.70;47.70;;;12.09;50.50;98722.00;8213632;28;20010;-81
2022/04/07 05:41:55;;;;;;;;;;;13.60;47.50;;;12.13;50.33;98728.59;8214024;28;19922;-81
2022/04/07 05:46:17;;;;;;;;;;;13.70;48.50;;;12.28;50.01;98748.09;8240302;28;20013;-81
2022/04/07 05:50:39;;;;;;;;;;;13.80;48.20;;;12.29;50.22;98734.06;8227617;28;20012;-81
2022/04/07 05:55:00;;;;;;;;;;;13.80;47.90;;;12.18;50.54;98700.22;8223750;28;20426;-81
2022/04/07 05:59:22;;;;;;;;;;;13.90;48.80;;;12.33;50.39;98714.44;8227364;28;20001;-84
2022/04/07 06:03:44;;;;;;;;;;;13.80;48.30;;;12.36;50.67;98706.31;8240716;28;19921;-81
2022/04/07 06:08:06;;;;;;;;;;;14.00;48.60;;;12.43;50.20;98708.38;8235142;28;19918;-82
2022/04/07 06:12:28;;;;;;;;;;;14.00;48.20;;;12.56;50.24;98707.03;8233882;28;19924;-83
2022/04/07 06:16:50;;;;;;;;;;;13.80;49.00;;;12.66;50.54;98722.66;8239942;28;20004;-83
2022/04/07 06:21:12;;;;;;;;;;;14.10;48.20;;;12.73;50.29;98700.16;8240370;28;19926;-84
2022/04/07 06:25:34;;;;;;;;;;;14.20;48.10;;;12.82;50.36;98708.94;8264337;28;19997;-81
2022/04/07 06:29:56;;;;;;;;;;;14.30;47.90;;;12.86;50.46;98705.06;8250379;28;20032;-82
2022/04/07 06:34:20;;;;;;;;;;;14.40;47.90;;;12.79;50.52;98683.84;8224222;28;20005;-82
2022/04/07 06:38:42;;;;;;;;;;;14.20;47.70;;;12.88;50.33;98687.41;8245017;28;20012;-83
2022/04/07 06:43:04;;;;;;;;;;;14.50;47.60;;;13.01;50.65;98693.06;8247027;28;19922;-84
2022/04/07 06:47:26;;;;;;;;;;;14.60;47.80;;;12.90;50.33;98668.88;8243543;28;20430;-82
2022/04/07 06:51:47;;;;;;;;;;;14.60;47.60;;;13.03;50.21;98682.44;8256494;28;20307;-87
2022/04/07 06:56:10;;;;;;;;;;;14.60;47.80;;;13.08;50.39;98677.56;8237624;28;19918;-83
2022/04/07 07:00:33;;;;;;;;;;;14.70;47.60;;;13.20;50.27;98673.72;8264031;28;20021;-81
2022/04/07 07:04:54;;;;;;;;;;;14.70;47.80;;;13.22;50.27;98655.22;8248639;28;20367;-83
2022/04/07 07:09:16;;;;;;;;;;;14.80;47.70;;;13.34;50.62;98655.81;8246341;28;20347;-82
2022/04/07 07:13:38;;;;;;;;;;;14.80;47.80;;;13.23;50.42;98617.56;8237141;28;20009;-80
2022/04/07 07:17:59;;;;;;;;;;;14.90;47.90;;;13.44;50.18;98646.88;8242211;28;19918;-86
2022/04/07 07:22:21;;;;;;;;;;;14.90;47.60;;;13.44;50.45;98631.16;8242648;28;20536;-83
2022/04/07 07:26:44;;;;;;;;;;;15.00;47.40;;;13.54;50.07;98630.25;8233159;28;19926;-85
2022/04/07 07:31:09;;;;;;;;;;;15.50;47.70;;;13.59;50.17;98605.19;8226099;28;19919;-80
2022/04/07 07:35:30;;;;;;;;;;;15.10;47.40;;;13.76;50.29;98610.50;8251033;28;19929;-81
2022/04/07 07:39:52;;;;;;;;;;;15.30;47.30;;;13.84;50.37;98594.81;8221474;28;20327;-78
2022/04/07 07:44:14;;;;;;;;;;;15.40;47.40;;;13.97;50.32;98584.69;8208571;28;20360;-81
2022/04/07 07:48:35;;;;;;;;;;;15.50;47.40;;;14.19;50.06;98583.28;8218770;28;20575;-82
2022/04/07 07:52:58;;;;;;;;;;;15.60;47.40;;;14.38;50.27;98561.16;8254455;28;20457;-81
2022/04/07 07:57:20;;;;;;;;;;;15.80;47.10;;;14.48;50.04;98576.78;8254490;28;19928;-81
2022/04/07 08:01:43;;;;;;;;;;;16.00;47.00;;;14.53;50.00;98575.31;8220975;28;19926;-79
2022/04/07 08:06:05;;;;;;;;;;;16.00;46.80;;;14.53;50.18;98550.88;8235164;28;19922;-79
2022/04/07 08:10:26;;;;;;;;;;;16.10;46.80;;;14.67;50.26;98559.91;8241941;28;19928;-80
2022/04/07 08:14:48;;;;;;;;;;;16.20;46.80;;;14.77;50.45;98556.13;8238243;28;19926;-82
2022/04/07 08:19:10;;;;;;;;;;;16.30;46.60;;;14.83;50.34;98550.19;8211432;28;19922;-80
2022/04/07 08:23:32;;;;;;;;;;;16.40;46.60;;;14.79;50.02;98538.38;8219051;28;19935;-81
2022/04/07 08:28:11;;;;;;;;;;;16.40;46.30;;;14.77;49.85;98523.75;8342048;28;19948;-83
2022/04/07 08:32:34;;;;;;;;;;;16.60;46.30;;;14.83;49.97;98528.34;8335235;28;19927;-81
2022/04/07 08:36:55;;;;;;;;;;;16.30;46.20;;;14.83;49.91;98512.59;8345760;28;19927;-80
2022/04/07 08:41:17;;;;;;;;;;;16.50;46.40;;;14.91;50.18;98488.13;8327384;28;19932;-82
2022/04/07 08:45:41;;;;;;;;;;;16.50;46.40;;;15.13;50.09;98500.53;8322053;28;19931;-80
2022/04/07 08:50:04;;;;;;;;;;;16.60;46.40;;;15.34;49.76;98491.25;8345178;28;19920;-82
2022/04/07 08:54:25;;;;;;;;;;;16.80;46.50;;;15.42;49.95;98473.66;8346437;28;19927;-83
2022/04/07 08:58:48;;;;;;;;;;;16.90;46.30;;;15.40;49.79;98465.09;8322251;28;20389;-82
2022/04/07 09:03:10;;;;;;;;;;;17.00;46.30;;;15.56;49.86;98473.91;8332514;28;19940;-81
2022/04/07 09:07:33;;;;;;;;;;;17.10;46.10;;;15.56;49.64;98463.41;8353505;28;19921;-83
2022/04/07 09:11:56;;;;;;;;;;;17.10;45.90;;;15.49;49.87;98445.66;8391349;28;19916;-82
2022/04/07 09:16:18;;;;;;;;;;;17.20;45.70;;;15.61;49.91;98440.84;8391599;28;20468;-82
2022/04/07 09:20:43;;;;;;;;;;;17.00;45.30;;;15.54;49.50;98418.03;8395677;28;20448;-83
2022/04/07 09:25:05;;;;;;;;;;;17.20;45.70;;;15.66;49.60;98441.13;8391768;28;20333;-81
2022/04/07 09:29:40;;;;;;;;;;;17.20;45.20;;;15.65;49.58;98415.00;8394328;28;20011;-83
2022/04/07 09:34:02;;;;;;;;;;;17.20;45.10;;;15.66;49.49;98406.09;8350454;28;20341;-83
2022/04/07 09:38:24;;;;;;;;;;;17.30;45.00;;;15.77;49.48;98374.16;8374472;28;20011;-80
2022/04/07 09:42:55;;;;;;;;;;;17.30;44.70;;;15.78;49.21;98390.75;8335403;28;20379;-81
2022/04/07 09:47:17;;;;;;;;;;;17.50;45.00;;;15.87;49.56;98382.63;8355330;28;19924;-82
2022/04/07 09:51:40;;;;;;;;;;;17.30;45.20;;;15.96;49.36;98369.38;8380687;28;19924;-82
2022/04/07 09:56:02;;;;;;;;;;;17.40;44.60;;;16.00;49.33;98363.59;8386335;28;19927;-82
2022/04/07 10:00:23;;;;;;;;;;;17.50;44.40;;;16.02;49.06;98329.22;8387065;28;19931;-82
2022/04/07 10:04:46;;;;;;;;;;;17.60;44.50;;;16.15;49.31;98332.88;8376571;28;20588;-81
2022/04/07 10:09:09;;;;;;;;;;;17.60;44.30;;;16.24;49.04;98340.69;8353358;28;19958;-80
2022/04/07 10:13:32;;;;;;;;;;;17.70;44.80;;;16.25;48.95;98334.41;8386431;28;19920;-82
2022/04/07 10:17:55;;;;;;;;;;;17.70;44.30;;;16.20;49.15;98284.09;8372941;28;19947;-83
2022/04/07 10:22:34;;;;;;;;;;;17.70;44.00;;;16.18;49.20;98265.84;8364537;28;20463;-81
2022/04/07 10:26:58;;;;;;;;;;;17.90;43.70;;;16.33;49.06;98263.22;8369996;28;20376;-83
2022/04/07 10:31:19;;;;;;;;;;;17.90;44.60;;;16.35;49.22;98234.88;8370932;28;19921;-81
2022/04/07 10:35:41;;;;;;;;;;;18.00;44.50;;;16.50;48.85;98245.38;8387406;28;19954;-81
2022/04/07 10:40:38;;;;;;;;;;;18.00;43.70;;;16.63;48.63;98235.00;8380352;28;19920;-81
2022/04/07 10:45:06;;;;;;;;;;;18.00;42.20;;;16.58;48.66;98235.59;8384175;28;19924;-81
2022/04/07 10:49:29;;;;;;;;;;;18.10;43.30;;;16.51;48.75;98196.97;8385334;28;19921;-83
2022/04/07 10:53:54;;;;;;;;;;;18.10;44.00;;;16.63;48.71;98211.28;8386294;28;19920;-82
2022/04/07 10:58:18;;;;;;;;;;;18.10;44.00;;;16.54;48.74;98200.06;8385033;28;19920;-81
2022/04/07 11:02:39;;;;;;;;;;;18.10;44.10;;;16.46;48.81;98163.28;8369208;28;20381;-82
2022/04/07 11:07:22;;;;;;;;;;;18.10;43.80;;;16.57;48.59;98177.78;8384622;28;19930;-83
2022/04/07 11:11:51;;;;;;;;;;;18.10;44.10;;;16.40;48.48;98148.22;8358724;28;19927;-82
2022/04/07 11:16:30;;;;;;;;;;;18.00;44.30;;;16.27;48.60;98124.38;8384048;28;19920;-83
2022/04/07 11:21:11;;;;;;;;;;;17.90;44.30;;;16.19;48.83;98137.66;8368864;28;19931;-83
2022/04/07 11:25:40;;;;;;;;;;;17.80;44.60;;;16.20;48.62;98134.00;8366736;28;19939;-81
2022/04/07 11:30:07;;;;;;;;;;;17.70;45.00;;;16.12;48.54;98114.69;8384046;28;19977;-81
2022/04/07 11:34:35;;;;;;;;;;;17.60;44.20;;;16.06;48.79;98102.25;8385549;28;19920;-82
2022/04/07 11:38:58;;;;;;;;;;;17.60;44.60;;;15.92;48.67;98061.78;8384236;28;20186;-82
2022/04/07 11:43:20;;;;;;;;;;;17.50;44.90;;;16.01;48.52;98070.38;8356331;28;19922;-81
2022/04/07 11:47:49;;;;;;;;;;;17.40;44.20;;;16.06;48.57;98056.69;8360603;28;19962;-81
2022/04/07 11:52:10;;;;;;;;;;;17.50;43.90;;;16.05;48.48;98055.06;8380070;28;19943;-82
2022/04/07 11:56:32;;;;;;;;;;;17.50;44.10;;;15.96;48.61;98022.78;8369723;28;19920;-81
2022/04/07 12:00:54;;;;;;;;;;;17.40;44.10;;;15.97;48.40;98005.16;8352681;28;19973;-80
2022/04/07 12:05:17;;;;;;;;;;;17.50;44.40;;;16.01;48.45;98004.59;8336664;28;20479;-81
2022/04/07 12:09:38;;;;;;;;;;;17.50;44.70;;;16.03;48.27;98001.78;8327407;28;19929;-81
2022/04/07 12:14:06;;;;;;;;;;;17.50;44.90;;;15.93;48.67;97978.38;8367270;28;19926;-81
2022/04/07 12:18:29;;;;;;;;;;;17.50;44.60;;;16.07;48.66;97995.16;8383057;28;19924;-81
2022/04/07 12:23:08;;;;;;;;;;;17.40;45.00;;;16.01;48.69;97993.25;8369052;28;19920;-81
2022/04/07 12:27:32;;;;;;;;;;;17.50;45.40;;;15.92;48.51;97972.31;8365373;28;19924;-80
2022/04/07 12:32:11;;;;;;;;;;;17.40;45.40;;;15.74;48.63;97950.84;8367890;28;19921;-81
2022/04/07 12:36:35;;;;;;;;;;;17.30;46.30;;;15.70;48.95;97968.84;8371980;28;19921;-81
2022/04/07 12:41:07;;;;;;;;;;;17.20;46.60;;;15.53;49.00;97951.63;8378184;28;19927;-83
2022/04/07 12:45:30;;;;;;;;;;;17.00;47.30;;;15.45;49.10;97943.84;8369111;28;19928;-83
2022/04/07 12:49:56;;;;;;;;;;;17.00;47.00;;;15.20;49.23;97899.47;8364250;28;19920;-81
2022/04/07 12:54:18;;;;;;;;;;;16.90;47.70;;;15.32;49.51;97894.53;8383340;28;19925;-80
2022/04/07 12:58:39;;;;;;;;;;;16.80;47.80;;;15.39;49.48;97908.59;8382002;28;19930;-81
2022/04/07 13:03:03;;;;;;;;;;;16.80;48.10;;;15.24;49.61;97873.63;8381264;28;19920;-82
2022/04/07 13:07:25;;;;;;;;;;;16.80;47.70;;;15.29;49.35;97863.34;8381675;28;19931;-81
2022/04/07 13:11:46;;;;;;;;;;;16.70;48.50;;;15.30;49.59;97854.47;8384235;28;19920;-81
2022/04/07 13:16:08;;;;;;;;;;;16.70;48.10;;;15.33;49.48;97846.19;8360066;28;20018;-81
2022/04/07 13:20:30;;;;;;;;;;;16.70;48.30;;;15.35;49.72;97830.25;8381819;28;19927;-81
2022/04/07 13:24:53;;;;;;;;;;;16.70;49.10;;;15.34;49.84;97803.16;8387868;28;19920;-83
2022/04/07 13:29:15;;;;;;;;;;;16.60;49.10;;;15.30;49.81;97790.53;8377954;28;19930;-80
2022/04/07 13:33:36;;;;;;;;;;;16.70;48.30;;;15.36;49.63;97769.56;8372549;28;20304;-81
2022/04/07 13:38:02;;;;;;;;;;;16.70;48.40;;;15.36;49.76;97764.31;8360474;28;19920;-81
2022/04/07 13:42:24;;;;;;;;;;;16.80;47.80;;;15.42;49.49;97750.44;8388351;28;19925;-82
2022/04/07 13:46:46;;;;;;;;;;;16.80;48.00;;;15.37;49.46;97712.56;8382865;28;19955;-81
2022/04/07 13:51:07;;;;;;;;;;;16.80;47.60;;;15.44;49.70;97740.50;8386026;28;19924;-81
2022/04/07 13:55:30;;;;;;;;;;;16.80;47.40;;;15.12;49.40;97659.53;8386637;28;19924;-81
2022/04/07 13:59:51;;;;;;;;;;;16.90;47.30;;;15.49;49.58;97724.16;8386165;28;20378;-81
2022/04/07 14:04:13;;;;;;;;;;;17.10;47.60;;;15.47;49.94;97740.16;8363927;28;20427;-79
2022/04/07 14:08:35;;;;;;;;;;;16.80;49.30;;;15.30;49.74;97709.03;8387716;28;20742;-80
2022/04/07 14:12:57;;;;;;;;;;;17.00;49.20;;;15.24;49.87;97706.16;8386613;28;20339;-81
2022/04/07 14:17:18;;;;;;;;;;;16.70;50.30;;;15.07;50.06;97683.78;8367227;28;19924;-81
2022/04/07 14:21:40;;;;;;;;;;;16.60;51.30;;;15.07;50.07;97711.84;8381706;28;19935;-82
2022/04/07 14:26:02;;;;;;;;;;;16.50;50.60;;;14.94;50.26;97920.16;8384661;28;19946;-80
2022/04/07 14:30:23;;;;;;;;;;;16.40;50.40;;;14.49;50.21;97912.19;8384194;28;19938;-84
2022/04/07 14:34:45;;;;;;;;;;;16.20;48.10;;;14.04;50.23;97895.56;8368719;28;19924;-85
2022/04/07 14:39:09;;;;;;;;;;;15.80;48.00;;;13.72;50.24;97896.63;8349188;28;19920;-84
2022/04/07 14:43:30;;;;;;;;;;;15.50;47.50;;;13.41;50.04;97907.13;8364792;28;20615;-85
2022/04/07 14:47:52;;;;;;;;;;;15.20;47.40;;;13.20;50.42;97916.34;8386039;28;19943;-85
2022/04/07 14:52:14;;;;;;;;;;;14.90;48.50;;;12.92;50.46;97915.97;8379203;28;19928;-84
2022/04/07 14:56:35;;;;;;;;;;;14.60;48.30;;;12.71;50.42;97916.53;8357362;28;19927;-85
2022/04/07 15:00:57;;;;;;;;;;;14.30;47.80;;;12.44;50.67;97903.81;8355973;28;19932;-84
2022/04/07 15:05:19;;;;;;;;;;;14.20;47.80;;;12.21;50.62;97870.50;8362857;28;19924;-84
2022/04/07 15:09:40;;;;;;;;;;;14.00;48.10;;;12.18;50.58;97857.75;8373170;28;19926;-84
2022/04/07 15:14:02;;;;;;;;;;;13.70;48.00;;;12.15;50.48;97844.97;8347109;28;20385;-84
2022/04/07 15:18:27;;;;;;;;;;;13.70;48.20;;;12.01;50.70;97785.50;8377341;28;20395;-84
2022/04/07 15:22:49;;;;;;;;;;;13.60;48.30;;;12.18;50.47;97821.13;8380765;28;19943;-83
2022/04/07 15:27:10;;;;;;;;;;;13.50;48.10;;;12.20;50.47;97818.34;8366996;28;19924;-84
2022/04/07 15:31:32;;;;;;;;;;;13.50;48.20;;;12.18;50.71;97828.97;8365580;28;19930;-85
2022/04/07 15:35:55;;;;;;;;;;;13.60;48.60;;;12.13;50.38;97841.75;8348273;28;19921;-84
2022/04/07 15:40:17;;;;;;;;;;;13.70;48.70;;;12.14;50.34;97830.28;8363697;28;19922;-85
2022/04/07 15:44:38;;;;;;;;;;;13.60;48.50;;;12.14;50.30;97830.28;8360689;28;19927;-85
2022/04/07 15:49:00;;;;;;;;;;;13.60;48.60;;;12.14;50.29;97845.97;8373407;28;19934;-84
2022/04/07 15:53:22;;;;;;;;;;;13.30;48.50;;;12.18;50.74;97850.72;8341752;28;19927;-87
2022/04/07 15:57:44;;;;;;;;;;;13.80;48.90;;;12.12;50.83;97833.09;8354988;28;20559;-85
2022/04/07 16:02:05;;;;;;;;;;;13.60;48.90;;;12.21;50.63;97848.75;8380750;28;19951;-86
2022/04/07 16:06:29;;;;;;;;;;;13.60;49.30;;;12.29;50.73;97844.31;8357973;28;19928;-84
2022/04/07 16:10:50;;;;;;;;;;;13.70;49.10;;;12.33;51.06;97856.06;8384539;28;20559;-84
2022/04/07 16:15:12;;;;;;;;;;;13.60;48.80;;;12.28;50.60;97839.25;8383559;28;19924;-84
2022/04/07 16:19:34;;;;;;;;;;;13.70;48.80;;;12.31;50.93;97852.84;8366331;28;19946;-82
2022/04/07 16:24:03;;;;;;;;;;;13.70;49.50;;;11.79;50.55;97782.56;8368050;28;19921;-83
2022/04/07 16:28:24;;;;;;;;;;;13.70;49.00;;;12.17;50.84;97856.09;8361337;28;19924;-85
2022/04/07 16:32:46;;;;;;;;;;;13.70;48.50;;;12.29;50.56;97890.63;8363032;28;20031;-84
2022/04/07 16:37:08;;;;;;;;;;;13.70;48.60;;;12.28;50.79;97889.78;8321753;28;19921;-85
2022/04/07 16:41:30;;;;;;;;;;;13.70;48.60;;;12.27;51.04;97888.16;8328076;28;19924;-84
2022/04/07 16:45:51;;;;;;;;;;;13.50;48.40;;;12.12;50.81;97879.31;8311106;28;19929;-84
2022/04/07 16:50:14;;;;;;;;;;;13.70;48.50;;;12.29;50.54;97890.63;8358489;28;19924;-84
2022/04/07 16:54:36;;;;;;;;;;;13.70;48.40;;;12.20;50.86;97870.66;8329825;28;20396;-84
2022/04/07 16:58:57;;;;;;;;;;;13.60;48.60;;;12.24;50.90;97871.97;8321945;28;20304;-84
2022/04/07 17:03:19;;;;;;;;;;;13.80;48.60;;;12.31;50.73;97889.47;8342311;28;19929;-85
2022/04/07 17:07:41;;;;;;;;;;;13.70;48.30;;;12.21;50.54;97874.94;8341368;28;19925;-85
2022/04/07 17:12:10;;;;;;;;;;;13.80;48.80;;;12.23;50.79;97884.22;8312673;28;19925;-84
2022/04/07 17:16:37;;;;;;;;;;;13.80;48.50;;;12.30;51.00;97887.00;8342629;28;19927;-89
2022/04/07 17:20:59;;;;;;;;;;;13.70;48.40;;;12.12;50.50;97853.16;8318518;28;19920;-82
2022/04/07 17:25:20;;;;;;;;;;;13.90;48.20;;;12.27;50.73;97898.63;8355835;28;19927;-87
2022/04/07 17:29:45;;;;;;;;;;;13.70;48.10;;;12.21;50.74;97888.00;8308383;28;19924;-83
2022/04/07 17:34:06;;;;;;;;;;;13.80;48.20;;;12.19;50.44;97888.16;8338774;28;19951;-84
2022/04/07 17:38:33;;;;;;;;;;;13.70;48.30;;;12.13;50.68;97889.63;8322961;28;19920;-82
2022/04/07 17:42:56;;;;;;;;;;;13.70;48.00;;;12.26;50.68;97912.69;8306502;28;19927;-83
2022/04/07 17:47:18;;;;;;;;;;;13.70;48.20;;;12.21;50.72;97912.38;8347321;28;19931;-83
2022/04/07 17:51:39;;;;;;;;;;;13.70;48.70;;;12.17;50.83;97918.88;8356863;28;19939;-87
2022/04/07 17:56:10;;;;;;;;;;;13.60;48.00;;;12.00;50.72;97904.19;8326484;28;19927;-84
2022/04/07 18:00:33;;;;;;;;;;;13.60;48.30;;;12.00;50.77;97901.56;8339058;28;19931;-84
2022/04/07 18:04:55;;;;;;;;;;;13.50;49.50;;;11.88;50.87;97894.06;8354281;28;19933;-83
2022/04/07 18:09:16;;;;;;;;;;;13.40;48.30;;;11.99;51.02;97915.63;8338959;28;20392;-84
2022/04/07 18:13:38;;;;;;;;;;;13.50;48.60;;;11.92;50.93;97921.50;8346039;28;20300;-83
2022/04/07 18:18:00;;;;;;;;;;;13.40;49.00;;;11.47;50.92;97859.97;8350599;28;19925;-83
2022/04/07 18:22:21;;;;;;;;;;;13.40;48.40;;;11.77;51.01;97928.31;8329680;28;19920;-84
2022/04/07 18:26:43;;;;;;;;;;;13.40;48.30;;;11.87;51.23;97949.13;8358254;28;19939;-84
2022/04/07 18:31:04;;;;;;;;;;;13.40;48.40;;;11.68;51.07;97924.06;8355284;28;19920;-83
2022/04/07 18:35:26;;;;;;;;;;;13.40;48.20;;;11.78;51.31;97956.09;8338372;28;19921;-82
2022/04/07 18:39:50;;;;;;;;;;;13.40;48.40;;;11.77;51.02;97959.69;8352611;28;19934;-83
2022/04/07 18:44:12;;;;;;;;;;;13.30;48.20;;;11.84;50.97;97983.41;8345837;28;19921;-83
2022/04/07 18:48:33;;;;;;;;;;;13.30;48.20;;;11.37;50.88;97923.81;8300577;28;20933;-82
2022/04/07 18:52:55;;;;;;;;;;;13.30;48.10;;;11.63;50.65;97952.47;8339923;28;20271;-85
2022/04/07 18:57:17;;;;;;;;;;;13.30;48.10;;;11.76;50.82;97981.59;8318599;28;19917;-84
2022/04/07 19:01:38;;;;;;;;;;;13.30;47.80;;;11.78;50.59;97986.66;8327758;28;20633;-86
2022/04/07 19:06:00;;;;;;;;;;;13.30;47.60;;;11.83;50.95;98013.97;8335451;28;19930;-85
2022/04/07 19:10:22;;;;;;;;;;;13.30;47.60;;;11.77;50.73;97998.09;8344122;28;19929;-84
2022/04/07 19:14:44;;;;;;;;;;;13.30;47.50;;;11.66;50.80;97983.50;8312765;28;19921;-85
2022/04/07 19:19:09;;;;;;;;;;;13.30;47.40;;;11.75;50.87;98011.34;8305635;28;19927;-84
2022/04/07 19:23:32;;;;;;;;;;;13.30;47.30;;;11.83;51.12;98024.44;8316181;28;19927;-85
2022/04/07 19:27:54;;;;;;;;;;;13.30;47.20;;;11.75;51.04;98013.94;8332456;28;19936;-85
2022/04/07 19:32:16;;;;;;;;;;;13.40;47.20;;;11.78;51.05;98034.53;8326312;28;19927;-84
2022/04/07 19:36:40;;;;;;;;;;;13.40;47.10;;;11.68;50.73;98049.53;8331065;28;20662;-84
2022/04/07 19:41:02;;;;;;;;;;;13.50;47.20;;;11.71;50.59;98091.84;8331105;28;19935;-83
2022/04/07 19:45:24;;;;;;;;;;;13.40;47.30;;;11.69;50.87;98098.22;8356766;28;19925;-84
2022/04/07 19:49:47;;;;;;;;;;;13.40;47.70;;;11.56;51.04;98076.91;8340068;28;20399;-84
2022/04/07 19:54:11;;;;;;;;;;;13.30;47.40;;;11.56;51.05;98093.44;8348334;28;19927;-86
2022/04/07 19:58:33;;;;;;;;;;;13.10;47.20;;;11.40;50.67;98062.00;8359592;28;19927;-83
2022/04/07 20:03:03;;;;;;;;;;;13.10;47.20;;;11.48;50.51;98111.69;8350526;28;19927;-83
2022/04/07 20:07:24;;;;;;;;;;;13.00;47.20;;;11.44;51.12;98095.47;8340607;28;20292;-84